Time;durP1;ratioP1;P1;durP2;ratioP2;P2;SDS_P1;SDS_P2;PMS_P1;PMS_P2;Temp;Humidity;BMP_temperature;BMP_pressure;BME280_temperature;BME280_humidity;BME280_pressure;Samples;Min_cycle;Max_cycle;Signal;HPM_P1;HPM_P2
2021/07/27 00:02:12;;;;;;;7.90;3.73;;;;;;;;;;10249073;28;20371;-77
2021/07/27 00:07:15;;;;;;;7.50;4.10;;;;;;;;;;10244881;28;20318;-77
2021/07/27 00:12:18;;;;;;;7.90;3.57;;;;;;;;;;10245003;28;20199;-77
2021/07/27 00:17:20;;;;;;;6.97;3.53;;;;;;;;;;10253692;28;20522;-77
2021/07/27 00:22:25;;;;;;;8.07;3.60;;;;;;;;;;10244973;28;20217;-77
2021/07/27 00:27:27;;;;;;;9.80;4.57;;;;;;;;;;10245072;28;20216;-77
2021/07/27 00:32:30;;;;;;;8.10;3.87;;;;;;;;;;10248607;28;20203;-77
2021/07/27 00:37:35;;;;;;;9.47;4.00;;;;;;;;;;10245096;28;20216;-78
2021/07/27 00:42:41;;;;;;;8.50;4.40;;;;;;;;;;10247050;28;20610;-76
2021/07/27 00:47:44;;;;;;;7.33;3.70;;;;;;;;;;10246026;28;20248;-77
2021/07/27 00:52:48;;;;;;;7.80;4.17;;;;;;;;;;10254053;28;20720;-78
2021/07/27 00:57:50;;;;;;;7.47;3.80;;;;;;;;;;10241444;28;20216;-77
2021/07/27 01:02:53;;;;;;;6.90;3.80;;;;;;;;;;10247662;28;20856;-77
2021/07/27 01:07:58;;;;;;;7.80;4.20;;;;;;;;;;10245209;28;20224;-76
2021/07/27 01:13:00;;;;;;;8.73;3.67;;;;;;;;;;10249826;28;20260;-76
2021/07/27 01:18:06;;;;;;;7.60;4.03;;;;;;;;;;10245515;28;20223;-77
2021/07/27 01:39:27;;;;;;;8.97;3.60;;;;;;;;;;10244468;28;20207;-77
2021/07/27 01:44:30;;;;;;;6.93;3.60;;;;;;;;;;10245008;28;20235;-77
2021/07/27 01:49:32;;;;;;;7.93;3.60;;;;;;;;;;10247972;28;20193;-77
2021/07/27 01:54:41;;;;;;;7.53;3.70;;;;;;;;;;10242703;28;20212;-77
2021/07/27 01:59:44;;;;;;;8.37;3.70;;;;;;;;;;10248247;28;20216;-77
2021/07/27 02:04:46;;;;;;;6.83;3.33;;;;;;;;;;10233240;28;20311;-77
2021/07/27 02:09:56;;;;;;;7.53;3.50;;;;;;;;;;10243803;28;20252;-76
2021/07/27 02:15:05;;;;;;;6.20;3.27;;;;;;;;;;10241378;28;20254;-76
2021/07/27 02:20:08;;;;;;;7.20;3.47;;;;;;;;;;10243410;28;20292;-76
2021/07/27 02:25:12;;;;;;;8.37;4.10;;;;;;;;;;10240583;28;20326;-77
2021/07/27 02:30:16;;;;;;;7.50;3.73;;;;;;;;;;10237096;28;20184;-77
2021/07/27 02:35:18;;;;;;;8.70;3.77;;;;;;;;;;10239957;28;20365;-76
2021/07/27 02:40:23;;;;;;;8.43;3.43;;;;;;;;;;10250324;28;20246;-77
2021/07/27 02:45:25;;;;;;;7.97;4.43;;;;;;;;;;10239603;28;20668;-76
2021/07/27 02:50:28;;;;;;;7.60;4.00;;;;;;;;;;10248822;28;20211;-77
2021/07/27 02:55:32;;;;;;;8.67;3.97;;;;;;;;;;10253722;28;20302;-77
2021/07/27 03:00:35;;;;;;;9.50;5.23;;;;;;;;;;10254228;28;20266;-77
2021/07/27 03:05:37;;;;;;;7.80;4.17;;;;;;;;;;10246232;28;20283;-77
2021/07/27 03:10:41;;;;;;;7.50;3.90;;;;;;;;;;10244465;28;20276;-76
2021/07/27 03:15:44;;;;;;;7.10;3.60;;;;;;;;;;10248574;28;20219;-77
2021/07/27 03:20:46;;;;;;;7.23;3.90;;;;;;;;;;10248885;28;20353;-75
2021/07/27 03:25:50;;;;;;;7.37;3.93;;;;;;;;;;10250231;28;20211;-77
2021/07/27 03:30:53;;;;;;;8.43;4.47;;;;;;;;;;10255896;28;20192;-78
2021/07/27 03:35:55;;;;;;;7.57;4.13;;;;;;;;;;10258549;28;20227;-76
2021/07/27 03:41:04;;;;;;;9.40;4.40;;;;;;;;;;10250070;28;20583;-77
2021/07/27 03:46:07;;;;;;;7.93;4.10;;;;;;;;;;10263483;28;20231;-76
2021/07/27 03:51:11;;;;;;;8.40;3.90;;;;;;;;;;10247294;28;20196;-76
2021/07/27 03:56:15;;;;;;;6.77;3.27;;;;;;;;;;10253937;28;20287;-76
2021/07/27 04:01:18;;;;;;;8.20;3.80;;;;;;;;;;10255905;28;20249;-76
2021/07/27 04:06:20;;;;;;;8.53;3.50;;;;;;;;;;10249786;28;20264;-76
2021/07/27 04:11:24;;;;;;;7.80;3.73;;;;;;;;;;10250740;28;20557;-76
2021/07/27 04:16:37;;;;;;;6.70;3.53;;;;;;;;;;10245217;28;20271;-76
2021/07/27 04:21:40;;;;;;;6.80;3.50;;;;;;;;;;10257375;28;20295;-76
2021/07/27 04:26:44;;;;;;;7.40;3.53;;;;;;;;;;10258364;28;20291;-76
2021/07/27 04:31:46;;;;;;;7.53;3.50;;;;;;;;;;10242216;28;20275;-75
2021/07/27 04:36:49;;;;;;;7.27;3.70;;;;;;;;;;10244184;28;20632;-75
2021/07/27 04:41:53;;;;;;;8.00;3.43;;;;;;;;;;10249752;28;20539;-75
2021/07/27 04:46:55;;;;;;;7.67;3.70;;;;;;;;;;10244425;28;20580;-76
2021/07/27 04:51:58;;;;;;;6.27;3.10;;;;;;;;;;10250251;28;20193;-76
2021/07/27 04:57:02;;;;;;;8.03;3.33;;;;;;;;;;10250240;28;20270;-77
2021/07/27 05:02:05;;;;;;;6.67;3.40;;;;;;;;;;10257949;28;20311;-77
2021/07/27 05:07:08;;;;;;;7.27;3.67;;;;;;;;;;10248166;28;20288;-76
2021/07/27 05:12:12;;;;;;;7.00;3.70;;;;;;;;;;10259721;28;20247;-77
2021/07/27 05:17:14;;;;;;;7.43;3.63;;;;;;;;;;10251724;28;20300;-77
2021/07/27 05:22:17;;;;;;;6.63;3.33;;;;;;;;;;10243174;28;20216;-75
2021/07/27 05:27:22;;;;;;;7.57;3.63;;;;;;;;;;10242629;28;20809;-76
2021/07/27 05:32:26;;;;;;;6.70;3.60;;;;;;;;;;10242180;28;20220;-75
2021/07/27 05:37:28;;;;;;;7.20;3.27;;;;;;;;;;10242490;28;20648;-77
2021/07/27 05:42:33;;;;;;;8.77;3.53;;;;;;;;;;10249925;28;20790;-77
2021/07/27 05:47:36;;;;;;;6.60;3.43;;;;;;;;;;10250422;28;20212;-79
2021/07/27 05:52:38;;;;;;;6.97;3.60;;;;;;;;;;10255294;28;20249;-79
2021/07/27 05:57:42;;;;;;;8.10;4.07;;;;;;;;;;10259567;28;20258;-77
2021/07/27 06:02:44;;;;;;;8.30;4.00;;;;;;;;;;10265466;28;20215;-77
2021/07/27 06:07:47;;;;;;;8.83;3.40;;;;;;;;;;10245451;28;20212;-76
2021/07/27 06:12:51;;;;;;;6.87;3.33;;;;;;;;;;10251806;28;21256;-77
2021/07/27 06:17:53;;;;;;;7.63;3.63;;;;;;;;;;10247516;28;20227;-76
2021/07/27 06:22:56;;;;;;;6.00;3.23;;;;;;;;;;10246118;28;20212;-78
2021/07/27 06:28:00;;;;;;;8.33;3.30;;;;;;;;;;10250366;28;20676;-77
2021/07/27 06:33:02;;;;;;;6.47;3.10;;;;;;;;;;10253996;28;20267;-77
2021/07/27 06:38:05;;;;;;;7.57;3.53;;;;;;;;;;10250258;28;20228;-75
2021/07/27 06:43:09;;;;;;;6.17;3.23;;;;;;;;;;10239222;28;20255;-74
2021/07/27 06:48:12;;;;;;;6.40;3.17;;;;;;;;;;10245445;28;20252;-75
2021/07/27 06:53:14;;;;;;;6.77;3.40;;;;;;;;;;10251612;28;20212;-74
2021/07/27 06:58:18;;;;;;;8.30;3.40;;;;;;;;;;10241556;28;20246;-73
2021/07/27 07:03:20;;;;;;;7.47;3.43;;;;;;;;;;10245140;28;20312;-74
2021/07/27 07:08:23;;;;;;;6.57;3.03;;;;;;;;;;10240144;28;20231;-74
2021/07/27 07:13:27;;;;;;;7.37;3.03;;;;;;;;;;10250649;28;20304;-74
2021/07/27 07:18:30;;;;;;;7.00;3.30;;;;;;;;;;10244451;28;20259;-75
2021/07/27 07:23:32;;;;;;;7.43;3.47;;;;;;;;;;10246554;28;20262;-73
2021/07/27 07:28:37;;;;;;;7.10;3.43;;;;;;;;;;10249281;28;20196;-74
2021/07/27 07:33:40;;;;;;;7.18;3.53;;;;;;;;;;10240846;28;20695;-74
2021/07/27 07:38:43;;;;;;;6.25;3.17;;;;;;;;;;10239455;28;20208;-73
2021/07/27 07:43:49;;;;;;;6.95;3.20;;;;;;;;;;10243162;28;20303;-74
2021/07/27 07:48:51;;;;;;;6.60;3.35;;;;;;;;;;10221316;28;20209;-74
2021/07/27 07:53:54;;;;;;;6.88;3.80;;;;;;;;;;10254552;28;20669;-75
2021/07/27 07:58:58;;;;;;;5.03;3.17;;;;;;;;;;10211181;28;20226;-74
2021/07/27 08:04:01;;;;;;;7.07;3.55;;;;;;;;;;10251072;28;20565;-75
2021/07/27 08:09:05;;;;;;;5.82;3.70;;;;;;;;;;10230861;28;20669;-75
2021/07/27 08:14:13;;;;;;;6.00;3.42;;;;;;;;;;10224646;28;20221;-75
2021/07/27 08:19:16;;;;;;;6.88;4.07;;;;;;;;;;10245511;28;20610;-75
2021/07/27 08:24:19;;;;;;;6.00;3.67;;;;;;;;;;10231992;28;20280;-74
2021/07/27 08:29:23;;;;;;;5.38;3.80;;;;;;;;;;10251368;28;20224;-75
2021/07/27 08:34:26;;;;;;;6.97;4.05;;;;;;;;;;10241709;28;20406;-75
2021/07/27 08:39:28;;;;;;;8.85;3.70;;;;;;;;;;10234652;28;20197;-75
2021/07/27 08:44:34;;;;;;;6.60;4.18;;;;;;;;;;10228055;28;20239;-75
2021/07/27 08:49:37;;;;;;;7.75;4.40;;;;;;;;;;10234421;28;20192;-75
2021/07/27 08:54:43;;;;;;;8.25;4.22;;;;;;;;;;10227427;28;20208;-75
2021/07/27 08:59:50;;;;;;;7.72;3.53;;;;;;;;;;10223257;28;20662;-74
2021/07/27 09:04:52;;;;;;;7.43;4.03;;;;;;;;;;10204148;28;20341;-74
2021/07/27 09:09:55;;;;;;;6.85;4.32;;;;;;;;;;10218207;28;20920;-74
2021/07/27 09:15:03;;;;;;;10.18;4.50;;;;;;;;;;10236159;28;20228;-74
2021/07/27 09:20:07;;;;;;;11.70;6.95;;;;;;;;;;10235296;28;20204;-76
2021/07/27 09:25:10;;;;;;;8.25;4.22;;;;;;;;;;10234297;28;20433;-75
2021/07/27 09:30:22;;;;;;;7.50;4.10;;;;;;;;;;10241416;28;20229;-75
2021/07/27 09:35:25;;;;;;;6.57;3.97;;;;;;;;;;10233984;28;20223;-75
2021/07/27 09:40:27;;;;;;;6.88;4.00;;;;;;;;;;10229985;28;20199;-75
2021/07/27 09:45:32;;;;;;;6.30;3.92;;;;;;;;;;10236837;28;20223;-75
2021/07/27 09:50:35;;;;;;;6.40;4.07;;;;;;;;;;10241010;28;20323;-75
2021/07/27 09:55:37;;;;;;;7.13;3.72;;;;;;;;;;10234784;28;20268;-76
2021/07/27 10:00:45;;;;;;;6.65;4.20;;;;;;;;;;10273477;28;20196;-75
2021/07/27 10:05:52;;;;;;;6.53;3.83;;;;;;;;;;10232167;28;20223;-77
2021/07/27 10:11:05;;;;;;;8.20;4.30;;;;;;;;;;10244168;28;20192;-76
2021/07/27 10:16:19;;;;;;;6.28;4.28;;;;;;;;;;10247177;28;20695;-76
2021/07/27 10:21:28;;;;;;;7.93;4.03;;;;;;;;;;10256752;28;20661;-76
2021/07/27 10:26:31;;;;;;;5.85;3.90;;;;;;;;;;10244823;28;20243;-76
2021/07/27 10:31:36;;;;;;;5.93;3.75;;;;;;;;;;10260049;28;20258;-76
2021/07/27 10:36:39;;;;;;;6.50;3.97;;;;;;;;;;10244644;28;20219;-75
2021/07/27 10:41:43;;;;;;;6.05;4.13;;;;;;;;;;10245615;28;20263;-76
2021/07/27 10:46:48;;;;;;;7.90;3.88;;;;;;;;;;10242177;28;20216;-76
2021/07/27 10:51:51;;;;;;;6.15;3.65;;;;;;;;;;10250483;28;20192;-77
2021/07/27 10:56:57;;;;;;;6.20;3.70;;;;;;;;;;10250372;28;20279;-76
2021/07/27 11:02:02;;;;;;;6.07;3.65;;;;;;;;;;10254901;28;20243;-77
2021/07/27 11:07:11;;;;;;;8.13;4.05;;;;;;;;;;10249950;28;20216;-77
2021/07/27 11:12:13;;;;;;;6.85;3.90;;;;;;;;;;10253241;28;20228;-77
2021/07/27 11:17:24;;;;;;;7.30;3.72;;;;;;;;;;10246059;28;20723;-77
2021/07/27 11:22:27;;;;;;;7.28;3.78;;;;;;;;;;10241980;28;20283;-76
2021/07/27 11:27:30;;;;;;;6.03;3.63;;;;;;;;;;10258917;28;20223;-76
2021/07/27 11:32:38;;;;;;;6.78;3.50;;;;;;;;;;10230858;28;20737;-76
2021/07/27 11:37:42;;;;;;;6.70;3.97;;;;;;;;;;10254903;28;20303;-76
2021/07/27 11:42:44;;;;;;;8.32;3.92;;;;;;;;;;10246770;28;20274;-75
2021/07/27 11:47:48;;;;;;;7.15;3.88;;;;;;;;;;10247496;28;20672;-75
2021/07/27 11:52:55;;;;;;;6.28;3.55;;;;;;;;;;10253472;28;20200;-76
2021/07/27 11:57:58;;;;;;;6.32;3.70;;;;;;;;;;10254633;28;20629;-75
2021/07/27 12:03:04;;;;;;;6.15;3.78;;;;;;;;;;10252612;28;20709;-76
2021/07/27 12:08:06;;;;;;;6.20;3.50;;;;;;;;;;10246881;28;20229;-75
2021/07/27 12:13:09;;;;;;;9.45;4.85;;;;;;;;;;10238596;28;20203;-77
2021/07/27 12:18:14;;;;;;;7.97;3.80;;;;;;;;;;10229505;28;20236;-76
2021/07/27 12:23:18;;;;;;;6.53;3.78;;;;;;;;;;10254322;28;20243;-77
2021/07/27 12:28:34;;;;;;;5.72;3.22;;;;;;;;;;10244143;28;20188;-77
2021/07/27 12:33:39;;;;;;;6.03;3.22;;;;;;;;;;10245257;28;20193;-76
2021/07/27 12:38:41;;;;;;;5.60;3.20;;;;;;;;;;10234580;28;20236;-76
2021/07/27 12:43:44;;;;;;;6.35;3.60;;;;;;;;;;10245516;28;20255;-77
2021/07/27 12:48:48;;;;;;;5.05;3.15;;;;;;;;;;10246742;28;20568;-76
2021/07/27 12:53:50;;;;;;;5.65;3.45;;;;;;;;;;10237486;28;20214;-76
2021/07/27 12:58:53;;;;;;;6.75;3.75;;;;;;;;;;10252189;28;20219;-76
2021/07/27 13:03:56;;;;;;;6.70;3.58;;;;;;;;;;10243481;28;20238;-75
2021/07/27 13:08:59;;;;;;;6.57;3.40;;;;;;;;;;10242249;28;20708;-76
2021/07/27 13:14:02;;;;;;;6.28;3.30;;;;;;;;;;10227375;28;20225;-77
2021/07/27 13:19:06;;;;;;;5.88;3.53;;;;;;;;;;10239807;28;20239;-76
2021/07/27 13:24:09;;;;;;;5.50;3.42;;;;;;;;;;10231432;28;20255;-76
2021/07/27 13:29:11;;;;;;;6.15;3.60;;;;;;;;;;10251720;28;20250;-76
2021/07/27 13:34:17;;;;;;;6.18;3.33;;;;;;;;;;10253152;28;20228;-76
2021/07/27 13:39:19;;;;;;;8.90;6.63;;;;;;;;;;10243217;28;20228;-76
2021/07/27 13:44:22;;;;;;;5.40;3.40;;;;;;;;;;10251330;28;20282;-76
2021/07/27 13:49:26;;;;;;;6.18;3.47;;;;;;;;;;10240803;28;20702;-76
2021/07/27 13:54:29;;;;;;;5.35;3.25;;;;;;;;;;10241948;28;20213;-75
2021/07/27 13:59:33;;;;;;;5.68;3.38;;;;;;;;;;10248031;28;20255;-76
2021/07/27 14:04:36;;;;;;;6.35;3.38;;;;;;;;;;10239923;28;20227;-76
2021/07/27 14:09:39;;;;;;;6.72;3.60;;;;;;;;;;10260845;28;20197;-75
2021/07/27 14:14:42;;;;;;;5.88;2.90;;;;;;;;;;10245814;28;20783;-76
2021/07/27 14:19:46;;;;;;;5.88;3.28;;;;;;;;;;10236203;28;20894;-76
2021/07/27 14:24:48;;;;;;;6.22;3.10;;;;;;;;;;10234691;28;20227;-76
2021/07/27 14:29:51;;;;;;;5.90;3.30;;;;;;;;;;10238111;28;20657;-76
2021/07/27 14:34:55;;;;;;;5.65;3.17;;;;;;;;;;10241259;28;20549;-76
2021/07/27 14:39:58;;;;;;;5.40;2.90;;;;;;;;;;10216273;28;20267;-77
2021/07/27 14:45:01;;;;;;;5.65;3.15;;;;;;;;;;10256600;28;20303;-76
2021/07/27 14:50:05;;;;;;;6.88;3.08;;;;;;;;;;10255419;28;20613;-76
2021/07/27 14:55:08;;;;;;;7.53;3.20;;;;;;;;;;10245802;28;20216;-76
2021/07/27 15:00:11;;;;;;;6.10;3.22;;;;;;;;;;10257594;28;20223;-76
2021/07/27 15:05:15;;;;;;;6.63;2.88;;;;;;;;;;10255644;28;20672;-77
2021/07/27 15:10:18;;;;;;;6.97;3.28;;;;;;;;;;10243803;28;20509;-76
2021/07/27 15:15:20;;;;;;;7.28;3.75;;;;;;;;;;10256190;28;20251;-77
2021/07/27 15:20:24;;;;;;;5.55;3.03;;;;;;;;;;10257393;28;20211;-77
2021/07/27 15:25:27;;;;;;;8.60;3.05;;;;;;;;;;10267490;28;20251;-75
2021/07/27 15:30:30;;;;;;;6.00;3.13;;;;;;;;;;10260188;28;20252;-77
2021/07/27 15:35:34;;;;;;;7.43;3.25;;;;;;;;;;10243350;28;21009;-77
2021/07/27 15:40:36;;;;;;;5.93;3.15;;;;;;;;;;10248701;28;20549;-76
2021/07/27 15:45:39;;;;;;;6.22;3.13;;;;;;;;;;10242648;28;20323;-76
2021/07/27 15:50:43;;;;;;;4.35;2.85;;;;;;;;;;10239558;28;20215;-77
2021/07/27 15:55:45;;;;;;;6.70;3.22;;;;;;;;;;10241786;28;20671;-77
2021/07/27 16:00:48;;;;;;;7.18;3.50;;;;;;;;;;10246932;28;20300;-76
2021/07/27 16:05:52;;;;;;;8.55;3.35;;;;;;;;;;10236712;28;20228;-76
2021/07/27 16:10:54;;;;;;;7.15;3.05;;;;;;;;;;10243689;28;20283;-75
2021/07/27 16:15:57;;;;;;;6.32;2.80;;;;;;;;;;10239993;28;20227;-75
2021/07/27 16:21:01;;;;;;;6.43;3.08;;;;;;;;;;10257651;28;20200;-75
2021/07/27 16:26:03;;;;;;;5.00;3.03;;;;;;;;;;10237146;28;20228;-76
2021/07/27 16:31:06;;;;;;;5.38;3.00;;;;;;;;;;10247835;28;20657;-76
2021/07/27 16:36:10;;;;;;;4.68;2.70;;;;;;;;;;10244460;28;20287;-76
2021/07/27 16:41:12;;;;;;;5.63;3.05;;;;;;;;;;10247920;28;20200;-74
2021/07/27 16:46:15;;;;;;;6.93;3.13;;;;;;;;;;10236063;28;20336;-75
2021/07/27 16:51:19;;;;;;;6.15;3.20;;;;;;;;;;10245147;28;20188;-76
2021/07/27 16:56:24;;;;;;;6.97;3.10;;;;;;;;;;10241428;28;20217;-75
2021/07/27 17:01:26;;;;;;;5.22;3.10;;;;;;;;;;10242909;28;20195;-75
2021/07/27 17:06:31;;;;;;;6.47;3.45;;;;;;;;;;10234156;28;20324;-76
2021/07/27 17:11:34;;;;;;;5.85;3.00;;;;;;;;;;10233715;28;20197;-75
2021/07/27 17:16:37;;;;;;;6.28;3.10;;;;;;;;;;10238014;28;20228;-75
2021/07/27 17:21:41;;;;;;;7.78;2.97;;;;;;;;;;10238797;28;20224;-75
2021/07/27 17:26:44;;;;;;;6.72;3.83;;;;;;;;;;10239096;28;20279;-76
2021/07/27 17:31:46;;;;;;;6.15;3.42;;;;;;;;;;10242067;28;20200;-76
2021/07/27 17:36:50;;;;;;;6.18;3.60;;;;;;;;;;10246733;28;20262;-75
2021/07/27 17:41:52;;;;;;;6.32;3.83;;;;;;;;;;10238106;28;20326;-76
2021/07/27 17:46:55;;;;;;;5.82;3.17;;;;;;;;;;10236446;28;20220;-76
2021/07/27 17:51:59;;;;;;;6.80;3.70;;;;;;;;;;10240836;28;20196;-76
2021/07/27 17:57:02;;;;;;;6.82;3.45;;;;;;;;;;10237209;28;20235;-77
2021/07/27 18:02:05;;;;;;;6.00;3.13;;;;;;;;;;10236107;28;20216;-75
2021/07/27 18:07:09;;;;;;;6.72;3.72;;;;;;;;;;10242332;28;20272;-75
2021/07/27 18:12:11;;;;;;;7.93;3.42;;;;;;;;;;10244950;28;20203;-74
2021/07/27 18:17:15;;;;;;;7.55;3.88;;;;;;;;;;10247106;28;20290;-78
2021/07/27 18:22:20;;;;;;;6.82;3.70;;;;;;;;;;10252569;28;20198;-76
2021/07/27 18:27:23;;;;;;;7.90;4.10;;;;;;;;;;10264457;28;20241;-77
2021/07/27 18:32:26;;;;;;;7.80;4.47;;;;;;;;;;10248696;28;20714;-76
2021/07/27 18:37:31;;;;;;;8.07;4.50;;;;;;;;;;10261586;28;20212;-75
2021/07/27 18:42:34;;;;;;;8.77;5.10;;;;;;;;;;10250286;28;20208;-75
2021/07/27 18:47:37;;;;;;;7.65;4.25;;;;;;;;;;10242460;28;20437;-75
2021/07/27 18:52:43;;;;;;;7.88;4.57;;;;;;;;;;10255970;28;20216;-75
2021/07/27 18:57:45;;;;;;;8.55;4.32;;;;;;;;;;10248126;28;20303;-76
2021/07/27 19:02:48;;;;;;;7.68;4.22;;;;;;;;;;10252874;28;20207;-76
2021/07/27 19:07:52;;;;;;;7.13;4.30;;;;;;;;;;10267589;28;20223;-77
2021/07/27 19:12:54;;;;;;;7.88;4.40;;;;;;;;;;10253793;28;20217;-76
2021/07/27 19:17:57;;;;;;;9.20;5.32;;;;;;;;;;10253527;28;20959;-76
2021/07/27 19:23:01;;;;;;;7.40;4.57;;;;;;;;;;10255033;28;20338;-77
2021/07/27 19:28:04;;;;;;;8.07;4.65;;;;;;;;;;10253860;28;20247;-76
2021/07/27 19:33:07;;;;;;;9.20;5.05;;;;;;;;;;10257419;28;20291;-76
2021/07/27 19:38:11;;;;;;;9.40;5.68;;;;;;;;;;10254998;28;20204;-76
2021/07/27 19:43:29;;;;;;;8.30;4.68;;;;;;;;;;10244080;28;20254;-76
2021/07/27 19:48:37;;;;;;;9.05;5.20;;;;;;;;;;10246148;28;20283;-75
2021/07/27 19:53:41;;;;;;;9.05;4.60;;;;;;;;;;10258588;28;20311;-76
2021/07/27 19:58:44;;;;;;;8.90;5.22;;;;;;;;;;10253623;28;20235;-75
2021/07/27 20:03:46;;;;;;;8.30;5.22;;;;;;;;;;10256901;28;20200;-74
2021/07/27 20:08:50;;;;;;;9.95;5.60;;;;;;;;;;10243890;28;20642;-75
2021/07/27 20:13:53;;;;;;;9.13;4.50;;;;;;;;;;10245853;28;20711;-77
2021/07/27 20:18:56;;;;;;;9.80;4.88;;;;;;;;;;10243729;28;20584;-75
2021/07/27 20:24:00;;;;;;;9.25;4.60;;;;;;;;;;10245366;28;20299;-76
2021/07/27 20:29:03;;;;;;;9.48;4.93;;;;;;;;;;10245657;28;20200;-73
2021/07/27 20:34:07;;;;;;;8.05;4.63;;;;;;;;;;10253319;28;20228;-75
2021/07/27 20:39:11;;;;;;;8.57;5.00;;;;;;;;;;10244218;28;20450;-75
2021/07/27 20:44:14;;;;;;;8.05;4.57;;;;;;;;;;10244328;28;20220;-76
2021/07/27 20:49:16;;;;;;;8.63;4.60;;;;;;;;;;10244150;28;20220;-76
2021/07/27 20:54:20;;;;;;;9.32;4.97;;;;;;;;;;10241178;28;20251;-76
2021/07/27 20:59:22;;;;;;;9.05;4.95;;;;;;;;;;10247580;28;20320;-76
2021/07/27 21:04:25;;;;;;;8.45;5.07;;;;;;;;;;10242288;28;20216;-75
2021/07/27 21:09:29;;;;;;;8.70;4.88;;;;;;;;;;10244881;28;20265;-76
2021/07/27 21:14:31;;;;;;;8.18;4.82;;;;;;;;;;10243712;28;20295;-73
2021/07/27 21:19:34;;;;;;;8.32;4.97;;;;;;;;;;10244860;28;20196;-74
2021/07/27 21:24:38;;;;;;;9.60;5.32;;;;;;;;;;10245612;28;20556;-75
2021/07/27 21:29:40;;;;;;;8.82;4.75;;;;;;;;;;10242188;28;20201;-76
2021/07/27 21:34:43;;;;;;;8.57;5.30;;;;;;;;;;10245740;28;20212;-75
2021/07/27 21:39:47;;;;;;;9.35;5.38;;;;;;;;;;10255855;28;20201;-76
2021/07/27 21:44:49;;;;;;;10.57;5.30;;;;;;;;;;10247651;28;20239;-75
2021/07/27 21:49:56;;;;;;;9.65;6.32;;;;;;;;;;10245937;28;20629;-75
2021/07/27 21:54:59;;;;;;;11.43;7.18;;;;;;;;;;10244609;28;20716;-75
2021/07/27 22:00:03;;;;;;;9.85;6.03;;;;;;;;;;10261487;28;20590;-76
2021/07/27 22:05:06;;;;;;;10.25;6.60;;;;;;;;;;10235296;28;20225;-75
2021/07/27 22:10:11;;;;;;;10.60;6.03;;;;;;;;;;10240736;28;20274;-76
2021/07/27 22:15:14;;;;;;;12.32;7.07;;;;;;;;;;10240708;28;20312;-74
2021/07/27 22:20:20;;;;;;;10.43;6.50;;;;;;;;;;10260735;28;20234;-74
2021/07/27 22:25:24;;;;;;;10.48;6.50;;;;;;;;;;10239116;28;20240;-73
2021/07/27 22:30:27;;;;;;;9.27;6.28;;;;;;;;;;10254206;28;20255;-74
2021/07/27 22:35:30;;;;;;;11.60;7.15;;;;;;;;;;10239894;28;20220;-72
2021/07/27 22:40:35;;;;;;;9.60;6.47;;;;;;;;;;10251012;28;20613;-74
2021/07/27 22:45:37;;;;;;;12.20;7.93;;;;;;;;;;10255446;28;20299;-72
2021/07/27 22:50:40;;;;;;;12.25;7.63;;;;;;;;;;10243458;28;20193;-74
2021/07/27 22:55:44;;;;;;;11.68;6.90;;;;;;;;;;10246774;28;20208;-74
2021/07/27 23:00:48;;;;;;;11.88;7.30;;;;;;;;;;10252720;28;20193;-75
2021/07/27 23:05:51;;;;;;;10.93;7.35;;;;;;;;;;10252490;28;20220;-76
2021/07/27 23:11:00;;;;;;;11.02;6.72;;;;;;;;;;10255650;28;20584;-75
2021/07/27 23:16:03;;;;;;;11.70;7.45;;;;;;;;;;10258212;28;20291;-75
2021/07/27 23:21:06;;;;;;;10.45;7.05;;;;;;;;;;10251308;28;20287;-73
2021/07/27 23:26:15;;;;;;;11.38;7.32;;;;;;;;;;10265411;28;20294;-74
2021/07/27 23:31:18;;;;;;;10.70;7.13;;;;;;;;;;10254344;28;20244;-75
2021/07/27 23:36:21;;;;;;;10.43;6.95;;;;;;;;;;10251750;28;20283;-74
2021/07/27 23:41:32;;;;;;;10.95;7.20;;;;;;;;;;10248139;28;20746;-74
2021/07/27 23:46:34;;;;;;;11.02;6.72;;;;;;;;;;10245239;28;20212;-73
2021/07/27 23:51:37;;;;;;;11.77;7.70;;;;;;;;;;10247973;28;20664;-73
2021/07/27 23:56:41;;;;;;;10.02;6.63;;;;;;;;;;10248104;28;20291;-73
